QTR1 EGPH-EGKK
Flight info
| Callsign | QTR1 |
|---|---|
| Flight time | N/A |
| Altitude | 33000 |
| Route | GOSAM P600 FENIK L612 NAVSO DCT KEPAD L151 DISIT |
| Aircraft | A332/H-SDE3GHIJ2J3J5M1RVWXY/LB2D1 |
Departure
| Time | 2026-04-26 18:43 |
|---|---|
| Airport | Edinburgh Airport (EGPH) |
Arrival
| Time | N/A |
|---|---|
| Airport | London Gatwick Airport (EGKK) |
| Time | Latitude | Longitude | Altitude | Speed | Heading |
|---|---|---|---|---|---|
| 2026-04-26 18:26 | 55.94612 | -3.36638 | 120 ft | 0 kts | 89° |
| 2026-04-26 18:36 | 55.94612 | -3.36664 | 120 ft | 2 kts | 89° |
| 2026-04-26 18:36 | 55.94610 | -3.36694 | 119 ft | 2 kts | 79° |
| 2026-04-26 18:36 | 55.94606 | -3.36725 | 115 ft | 3 kts | 48° |
| 2026-04-26 18:36 | 55.94591 | -3.36743 | 116 ft | 1 kts | 6° |
| 2026-04-26 18:38 | 55.94608 | -3.36741 | 115 ft | 5 kts | 2° |
| 2026-04-26 18:38 | 55.94664 | -3.36739 | 117 ft | 11 kts | 1° |
| 2026-04-26 18:39 | 55.94753 | -3.36757 | 116 ft | 13 kts | 335° |
| 2026-04-26 18:39 | 55.94855 | -3.36780 | 120 ft | 17 kts | 354° |
| 2026-04-26 18:39 | 55.94917 | -3.36911 | 116 ft | 15 kts | 260° |
| 2026-04-26 18:39 | 55.94858 | -3.37097 | 118 ft | 25 kts | 239° |
| 2026-04-26 18:40 | 55.94761 | -3.37378 | 116 ft | 28 kts | 238° |
| 2026-04-26 18:40 | 55.94659 | -3.37684 | 116 ft | 30 kts | 239° |
| 2026-04-26 18:40 | 55.94549 | -3.38010 | 115 ft | 32 kts | 238° |
| 2026-04-26 18:40 | 55.94431 | -3.38357 | 116 ft | 34 kts | 239° |
| 2026-04-26 18:41 | 55.94318 | -3.38689 | 115 ft | 20 kts | 238° |
| 2026-04-26 18:41 | 55.94286 | -3.38822 | 120 ft | 8 kts | 279° |
| 2026-04-26 18:41 | 55.94314 | -3.38892 | 116 ft | 6 kts | 316° |
| 2026-04-26 18:41 | 55.94349 | -3.38932 | 114 ft | 8 kts | 328° |
| 2026-04-26 18:42 | 55.94410 | -3.38947 | 114 ft | 8 kts | 25° |
| 2026-04-26 18:42 | 55.94452 | -3.38864 | 115 ft | 15 kts | 57° |
| 2026-04-26 18:42 | 55.94623 | -3.38369 | 112 ft | 80 kts | 59° |
| 2026-04-26 18:42 | 55.95018 | -3.37198 | 113 ft | 139 kts | 59° |
| 2026-04-26 18:43 | 55.95561 | -3.35606 | 524 ft | 156 kts | 58° |
| 2026-04-26 18:43 | 55.96208 | -3.33808 | 692 ft | 182 kts | 57° |
| 2026-04-26 18:43 | 55.96913 | -3.31880 | 906 ft | 190 kts | 56° |
| 2026-04-26 18:43 | 55.97648 | -3.29818 | 1097 ft | 203 kts | 57° |
| 2026-04-26 18:44 | 55.98418 | -3.27605 | 1293 ft | 217 kts | 57° |
| 2026-04-26 18:44 | 55.99229 | -3.25207 | 1545 ft | 234 kts | 58° |